sensor_id;sensor_type;location;lat;lon;timestamp;pressure;altitude;pressure_sealevel;temperature;humidity
42591;BME280;28218;53.342;-6.216;2023-08-20T00:01:00;101160.94;;;18.53;100.00
42591;BME280;28218;53.342;-6.216;2023-08-20T00:03:30;101153.97;;;18.52;100.00
42591;BME280;28218;53.342;-6.216;2023-08-20T00:06:01;101161.75;;;18.53;100.00
42591;BME280;28218;53.342;-6.216;2023-08-20T00:08:30;101162.81;;;18.52;100.00
42591;BME280;28218;53.342;-6.216;2023-08-20T00:10:58;101176.16;;;18.52;100.00
42591;BME280;28218;53.342;-6.216;2023-08-20T00:13:27;101174.72;;;18.50;100.00
42591;BME280;28218;53.342;-6.216;2023-08-20T00:15:55;101181.28;;;18.47;100.00
42591;BME280;28218;53.342;-6.216;2023-08-20T00:18:24;101172.06;;;18.43;100.00
42591;BME280;28218;53.342;-6.216;2023-08-20T00:20:53;101178.44;;;18.42;100.00
42591;BME280;28218;53.342;-6.216;2023-08-20T00:23:24;101182.13;;;18.41;100.00
42591;BME280;28218;53.342;-6.216;2023-08-20T00:25:52;101183.97;;;18.41;100.00
42591;BME280;28218;53.342;-6.216;2023-08-20T00:28:21;101189.72;;;18.37;100.00
42591;BME280;28218;53.342;-6.216;2023-08-20T00:30:49;101191.56;;;18.37;100.00
42591;BME280;28218;53.342;-6.216;2023-08-20T00:33:17;101193.44;;;18.36;100.00
42591;BME280;28218;53.342;-6.216;2023-08-20T00:35:46;101189.94;;;18.36;100.00
42591;BME280;28218;53.342;-6.216;2023-08-20T00:38:14;101189.31;;;18.34;100.00
42591;BME280;28218;53.342;-6.216;2023-08-20T00:40:44;101187.91;;;18.31;100.00
42591;BME280;28218;53.342;-6.216;2023-08-20T00:43:12;101185.41;;;18.30;100.00
42591;BME280;28218;53.342;-6.216;2023-08-20T00:45:40;101186.03;;;18.25;100.00
42591;BME280;28218;53.342;-6.216;2023-08-20T00:48:10;101191.59;;;18.24;100.00
42591;BME280;28218;53.342;-6.216;2023-08-20T00:50:39;101192.00;;;18.21;100.00
42591;BME280;28218;53.342;-6.216;2023-08-20T00:53:10;101202.06;;;18.19;100.00
42591;BME280;28218;53.342;-6.216;2023-08-20T00:55:40;101209.47;;;18.17;100.00
42591;BME280;28218;53.342;-6.216;2023-08-20T00:58:10;101205.97;;;18.16;100.00
42591;BME280;28218;53.342;-6.216;2023-08-20T01:00:39;101208.84;;;18.14;100.00
42591;BME280;28218;53.342;-6.216;2023-08-20T01:03:08;101211.72;;;18.13;100.00
42591;BME280;28218;53.342;-6.216;2023-08-20T01:05:41;101215.19;;;18.13;100.00
42591;BME280;28218;53.342;-6.216;2023-08-20T01:08:22;101211.94;;;18.11;100.00
42591;BME280;28218;53.342;-6.216;2023-08-20T01:10:57;101223.59;;;18.10;100.00
42591;BME280;28218;53.342;-6.216;2023-08-20T01:13:30;101217.44;;;18.10;100.00
42591;BME280;28218;53.342;-6.216;2023-08-20T01:15:58;101218.25;;;18.10;100.00
42591;BME280;28218;53.342;-6.216;2023-08-20T01:18:26;101219.28;;;18.09;100.00
42591;BME280;28218;53.342;-6.216;2023-08-20T01:20:59;101228.13;;;18.10;100.00
42591;BME280;28218;53.342;-6.216;2023-08-20T01:23:56;101231.81;;;18.09;100.00
42591;BME280;28218;53.342;-6.216;2023-08-20T01:26:40;101224.63;;;18.09;100.00
42591;BME280;28218;53.342;-6.216;2023-08-20T01:29:16;101231.00;;;18.08;100.00
42591;BME280;28218;53.342;-6.216;2023-08-20T01:31:44;101225.66;;;18.08;100.00
42591;BME280;28218;53.342;-6.216;2023-08-20T01:34:13;101230.19;;;18.08;100.00
42591;BME280;28218;53.342;-6.216;2023-08-20T01:36:41;101229.53;;;18.06;100.00
42591;BME280;28218;53.342;-6.216;2023-08-20T01:39:09;101236.72;;;18.05;100.00
42591;BME280;28218;53.342;-6.216;2023-08-20T01:41:38;101233.25;;;18.05;100.00
42591;BME280;28218;53.342;-6.216;2023-08-20T01:44:07;101236.13;;;18.03;100.00
42591;BME280;28218;53.342;-6.216;2023-08-20T01:46:37;101241.25;;;18.05;100.00
42591;BME280;28218;53.342;-6.216;2023-08-20T01:49:05;101229.75;;;18.04;100.00
42591;BME280;28218;53.342;-6.216;2023-08-20T01:51:33;101236.31;;;18.02;100.00
42591;BME280;28218;53.342;-6.216;2023-08-20T01:54:03;101239.81;;;18.02;100.00
42591;BME280;28218;53.342;-6.216;2023-08-20T01:56:32;101237.97;;;18.03;100.00
42591;BME280;28218;53.342;-6.216;2023-08-20T01:59:00;101241.84;;;18.00;100.00
42591;BME280;28218;53.342;-6.216;2023-08-20T02:01:28;101246.38;;;18.00;100.00
42591;BME280;28218;53.342;-6.216;2023-08-20T02:03:58;101246.59;;;17.98;100.00
42591;BME280;28218;53.342;-6.216;2023-08-20T02:06:26;101251.28;;;17.96;100.00
42591;BME280;28218;53.342;-6.216;2023-08-20T02:08:54;101256.00;;;17.94;100.00
42591;BME280;28218;53.342;-6.216;2023-08-20T02:11:23;101251.72;;;17.93;100.00
42591;BME280;28218;53.342;-6.216;2023-08-20T02:13:51;101262.38;;;17.93;100.00
42591;BME280;28218;53.342;-6.216;2023-08-20T02:16:19;101263.38;;;17.92;100.00
42591;BME280;28218;53.342;-6.216;2023-08-20T02:18:47;101254.97;;;17.88;100.00
42591;BME280;28218;53.342;-6.216;2023-08-20T02:21:17;101273.66;;;17.88;100.00
42591;BME280;28218;53.342;-6.216;2023-08-20T02:23:45;101265.84;;;17.87;100.00
42591;BME280;28218;53.342;-6.216;2023-08-20T02:26:13;101266.03;;;17.85;100.00
42591;BME280;28218;53.342;-6.216;2023-08-20T02:28:42;101268.91;;;17.84;100.00
42591;BME280;28218;53.342;-6.216;2023-08-20T02:31:11;101263.59;;;17.84;100.00
42591;BME280;28218;53.342;-6.216;2023-08-20T02:33:39;101269.75;;;17.84;100.00
42591;BME280;28218;53.342;-6.216;2023-08-20T02:36:07;101279.75;;;17.82;100.00
42591;BME280;28218;53.342;-6.216;2023-08-20T02:38:37;101285.53;;;17.79;100.00
42591;BME280;28218;53.342;-6.216;2023-08-20T02:41:05;101283.84;;;17.78;100.00
42591;BME280;28218;53.342;-6.216;2023-08-20T02:43:33;101294.94;;;17.75;100.00
42591;BME280;28218;53.342;-6.216;2023-08-20T02:46:01;101295.28;;;17.72;100.00
42591;BME280;28218;53.342;-6.216;2023-08-20T02:48:30;101287.91;;;17.68;100.00
42591;BME280;28218;53.342;-6.216;2023-08-20T02:50:58;101289.97;;;17.66;100.00
42591;BME280;28218;53.342;-6.216;2023-08-20T02:53:26;101282.78;;;17.66;100.00
42591;BME280;28218;53.342;-6.216;2023-08-20T02:55:56;101284.63;;;17.66;100.00
42591;BME280;28218;53.342;-6.216;2023-08-20T02:58:24;101285.44;;;17.66;100.00
42591;BME280;28218;53.342;-6.216;2023-08-20T03:00:52;101287.28;;;17.66;100.00
42591;BME280;28218;53.342;-6.216;2023-08-20T03:03:20;101284.63;;;17.66;100.00
42591;BME280;28218;53.342;-6.216;2023-08-20T03:05:49;101283.81;;;17.65;100.00
42591;BME280;28218;53.342;-6.216;2023-08-20T03:08:17;101291.00;;;17.65;100.00
42591;BME280;28218;53.342;-6.216;2023-08-20T03:10:45;101277.66;;;17.65;100.00
42591;BME280;28218;53.342;-6.216;2023-08-20T03:13:15;101288.13;;;17.66;100.00
42591;BME280;28218;53.342;-6.216;2023-08-20T03:15:43;101290.78;;;17.66;100.00
42591;BME280;28218;53.342;-6.216;2023-08-20T03:18:11;101289.31;;;17.63;100.00
42591;BME280;28218;53.342;-6.216;2023-08-20T03:20:39;101290.34;;;17.62;100.00
42591;BME280;28218;53.342;-6.216;2023-08-20T03:23:07;101287.47;;;17.64;100.00
42591;BME280;28218;53.342;-6.216;2023-08-20T03:25:36;101283.59;;;17.67;100.00
42591;BME280;28218;53.342;-6.216;2023-08-20T03:28:04;101288.72;;;17.68;100.00
42591;BME280;28218;53.342;-6.216;2023-08-20T03:30:34;101288.72;;;17.68;100.00
42591;BME280;28218;53.342;-6.216;2023-08-20T03:33:04;101293.22;;;17.68;100.00
42591;BME280;28218;53.342;-6.216;2023-08-20T03:35:32;101287.91;;;17.68;100.00
42591;BME280;28218;53.342;-6.216;2023-08-20T03:38:00;101294.06;;;17.68;100.00
42591;BME280;28218;53.342;-6.216;2023-08-20T03:40:29;101294.47;;;17.65;100.00
42591;BME280;28218;53.342;-6.216;2023-08-20T03:42:57;101295.06;;;17.60;100.00
42591;BME280;28218;53.342;-6.216;2023-08-20T03:45:25;101291.38;;;17.68;100.00
42591;BME280;28218;53.342;-6.216;2023-08-20T03:47:55;101296.53;;;17.70;100.00
42591;BME280;28218;53.342;-6.216;2023-08-20T03:50:23;101297.34;;;17.70;100.00
42591;BME280;28218;53.342;-6.216;2023-08-20T03:52:52;101296.31;;;17.71;100.00
42591;BME280;28218;53.342;-6.216;2023-08-20T03:55:20;101299.81;;;17.72;100.00
42591;BME280;28218;53.342;-6.216;2023-08-20T03:57:48;101304.31;;;17.71;100.00
42591;BME280;28218;53.342;-6.216;2023-08-20T04:00:16;101300.03;;;17.70;100.00
42591;BME280;28218;53.342;-6.216;2023-08-20T04:02:44;101303.28;;;17.72;100.00
42591;BME280;28218;53.342;-6.216;2023-08-20T04:05:15;101305.59;;;17.75;100.00
42591;BME280;28218;53.342;-6.216;2023-08-20T04:07:43;101314.63;;;17.74;100.00
42591;BME280;28218;53.342;-6.216;2023-08-20T04:10:12;101317.09;;;17.76;100.00
42591;BME280;28218;53.342;-6.216;2023-08-20T04:12:40;101318.72;;;17.77;100.00
42591;BME280;28218;53.342;-6.216;2023-08-20T04:15:09;101316.25;;;17.75;100.00
42591;BME280;28218;53.342;-6.216;2023-08-20T04:17:37;101326.09;;;17.75;100.00
42591;BME280;28218;53.342;-6.216;2023-08-20T04:20:07;101315.44;;;17.75;100.00
42591;BME280;28218;53.342;-6.216;2023-08-20T04:22:37;101318.47;;;17.72;100.00
42591;BME280;28218;53.342;-6.216;2023-08-20T04:25:07;101327.50;;;17.71;100.00
42591;BME280;28218;53.342;-6.216;2023-08-20T04:27:35;101323.78;;;17.72;100.00
42591;BME280;28218;53.342;-6.216;2023-08-20T04:30:05;101332.03;;;17.77;100.00
42591;BME280;28218;53.342;-6.216;2023-08-20T04:32:34;101326.13;;;17.81;100.00
42591;BME280;28218;53.342;-6.216;2023-08-20T04:35:02;101333.06;;;17.82;100.00
42591;BME280;28218;53.342;-6.216;2023-08-20T04:37:31;101332.69;;;17.79;100.00
42591;BME280;28218;53.342;-6.216;2023-08-20T04:40:01;101325.72;;;17.84;100.00
42591;BME280;28218;53.342;-6.216;2023-08-20T04:42:31;101327.13;;;17.80;100.00
42591;BME280;28218;53.342;-6.216;2023-08-20T04:44:59;101345.63;;;17.88;100.00
42591;BME280;28218;53.342;-6.216;2023-08-20T04:47:27;101329.81;;;17.87;100.00
42591;BME280;28218;53.342;-6.216;2023-08-20T04:49:56;101339.06;;;17.91;100.00
42591;BME280;28218;53.342;-6.216;2023-08-20T04:52:24;101339.47;;;17.95;100.00
42591;BME280;28218;53.342;-6.216;2023-08-20T04:54:52;101343.56;;;17.97;100.00
42591;BME280;28218;53.342;-6.216;2023-08-20T04:57:21;101338.88;;;17.99;100.00
42591;BME280;28218;53.342;-6.216;2023-08-20T04:59:50;101342.56;;;17.98;100.00
42591;BME280;28218;53.342;-6.216;2023-08-20T05:02:18;101340.72;;;17.99;100.00
42591;BME280;28218;53.342;-6.216;2023-08-20T05:04:46;101337.25;;;17.98;100.00
42591;BME280;28218;53.342;-6.216;2023-08-20T05:07:15;101344.22;;;17.99;100.00
42591;BME280;28218;53.342;-6.216;2023-08-20T05:09:43;101346.25;;;17.97;100.00
42591;BME280;28218;53.342;-6.216;2023-08-20T05:12:11;101350.97;;;17.95;100.00
42591;BME280;28218;53.342;-6.216;2023-08-20T05:14:41;101354.03;;;17.92;100.00
42591;BME280;28218;53.342;-6.216;2023-08-20T05:17:09;101349.09;;;17.89;100.00
42591;BME280;28218;53.342;-6.216;2023-08-20T05:19:37;101344.38;;;17.84;100.00
42591;BME280;28218;53.342;-6.216;2023-08-20T05:22:05;101353.19;;;17.85;100.00
42591;BME280;28218;53.342;-6.216;2023-08-20T05:24:34;101354.00;;;17.85;100.00
42591;BME280;28218;53.342;-6.216;2023-08-20T05:27:06;101357.72;;;17.84;100.00
42591;BME280;28218;53.342;-6.216;2023-08-20T05:29:36;101371.22;;;17.83;100.00
42591;BME280;28218;53.342;-6.216;2023-08-20T05:32:06;101374.09;;;17.81;100.00
42591;BME280;28218;53.342;-6.216;2023-08-20T05:34:35;101382.91;;;17.82;100.00
42591;BME280;28218;53.342;-6.216;2023-08-20T05:37:03;101380.44;;;17.80;100.00
42591;BME280;28218;53.342;-6.216;2023-08-20T05:39:36;101379.63;;;17.80;100.00
42591;BME280;28218;53.342;-6.216;2023-08-20T05:42:05;101379.63;;;17.80;100.00
42591;BME280;28218;53.342;-6.216;2023-08-20T05:44:33;101384.31;;;17.78;100.00
42591;BME280;28218;53.342;-6.216;2023-08-20T05:47:02;101380.84;;;17.77;100.00
42591;BME280;28218;53.342;-6.216;2023-08-20T05:49:32;101380.66;;;17.79;100.00
42591;BME280;28218;53.342;-6.216;2023-08-20T05:52:00;101379.00;;;17.78;100.00
42591;BME280;28218;53.342;-6.216;2023-08-20T05:54:29;101392.97;;;17.80;100.00
42591;BME280;28218;53.342;-6.216;2023-08-20T05:56:57;101392.97;;;17.80;100.00
42591;BME280;28218;53.342;-6.216;2023-08-20T05:59:25;101385.63;;;17.88;100.00
42591;BME280;28218;53.342;-6.216;2023-08-20T06:01:54;101386.81;;;17.86;100.00
42591;BME280;28218;53.342;-6.216;2023-08-20T06:04:22;101392.19;;;17.99;100.00
42591;BME280;28218;53.342;-6.216;2023-08-20T06:06:52;101394.69;;;18.07;100.00
42591;BME280;28218;53.342;-6.216;2023-08-20T06:09:20;101400.44;;;18.11;100.00
42591;BME280;28218;53.342;-6.216;2023-08-20T06:11:48;101390.19;;;18.14;100.00
42591;BME280;28218;53.342;-6.216;2023-08-20T06:14:18;101401.50;;;18.17;100.00
42591;BME280;28218;53.342;-6.216;2023-08-20T06:16:46;101395.72;;;18.20;100.00
42591;BME280;28218;53.342;-6.216;2023-08-20T06:19:14;101402.09;;;18.25;100.00
42591;BME280;28218;53.342;-6.216;2023-08-20T06:21:43;101394.09;;;18.25;100.00
42591;BME280;28218;53.342;-6.216;2023-08-20T06:24:12;101382.81;;;18.30;100.00
42591;BME280;28218;53.342;-6.216;2023-08-20T06:26:41;101386.72;;;18.34;100.00
42591;BME280;28218;53.342;-6.216;2023-08-20T06:29:10;101387.56;;;18.34;100.00
42591;BME280;28218;53.342;-6.216;2023-08-20T06:31:39;101393.50;;;18.30;100.00
42591;BME280;28218;53.342;-6.216;2023-08-20T06:34:07;101394.34;;;18.37;100.00
42591;BME280;28218;53.342;-6.216;2023-08-20T06:36:35;101392.09;;;18.41;100.00
42591;BME280;28218;53.342;-6.216;2023-08-20T06:39:04;101397.81;;;18.44;100.00
42591;BME280;28218;53.342;-6.216;2023-08-20T06:41:34;101393.94;;;18.47;100.00
42591;BME280;28218;53.342;-6.216;2023-08-20T06:44:02;101401.34;;;18.45;100.00
42591;BME280;28218;53.342;-6.216;2023-08-20T06:46:30;101400.09;;;18.47;100.00
42591;BME280;28218;53.342;-6.216;2023-08-20T06:48:59;101394.75;;;18.47;100.00
42591;BME280;28218;53.342;-6.216;2023-08-20T06:51:27;101403.19;;;18.51;100.00
42591;BME280;28218;53.342;-6.216;2023-08-20T06:53:55;101393.94;;;18.53;100.00
42591;BME280;28218;53.342;-6.216;2023-08-20T06:56:24;101406.06;;;18.56;100.00
42591;BME280;28218;53.342;-6.216;2023-08-20T06:58:53;101406.88;;;18.63;100.00
42591;BME280;28218;53.342;-6.216;2023-08-20T07:01:22;101405.91;;;18.71;100.00
42591;BME280;28218;53.342;-6.216;2023-08-20T07:03:50;101410.00;;;18.80;100.00
42591;BME280;28218;53.342;-6.216;2023-08-20T07:06:18;101398.31;;;18.87;100.00
42591;BME280;28218;53.342;-6.216;2023-08-20T07:08:46;101398.91;;;18.89;100.00
42591;BME280;28218;53.342;-6.216;2023-08-20T07:11:14;101403.84;;;19.06;100.00
42591;BME280;28218;53.342;-6.216;2023-08-20T07:13:43;101403.81;;;19.12;100.00
42591;BME280;28218;53.342;-6.216;2023-08-20T07:16:12;101404.63;;;19.13;100.00
42591;BME280;28218;53.342;-6.216;2023-08-20T07:18:40;101416.56;;;19.10;100.00
42591;BME280;28218;53.342;-6.216;2023-08-20T07:21:08;101412.88;;;19.11;100.00
42591;BME280;28218;53.342;-6.216;2023-08-20T07:23:37;101410.19;;;19.11;100.00
42591;BME280;28218;53.342;-6.216;2023-08-20T07:26:06;101414.69;;;19.24;100.00
42591;BME280;28218;53.342;-6.216;2023-08-20T07:28:35;101427.22;;;19.30;100.00
42591;BME280;28218;53.342;-6.216;2023-08-20T07:31:22;101432.34;;;19.38;100.00
42591;BME280;28218;53.342;-6.216;2023-08-20T07:33:50;101428.00;;;19.44;100.00
42591;BME280;28218;53.342;-6.216;2023-08-20T07:36:19;101432.91;;;19.47;100.00
42591;BME280;28218;53.342;-6.216;2023-08-20T07:38:49;101437.44;;;19.53;100.00
42591;BME280;28218;53.342;-6.216;2023-08-20T07:41:18;101436.41;;;19.61;100.00
42591;BME280;28218;53.342;-6.216;2023-08-20T07:43:49;101437.22;;;19.68;100.00
42591;BME280;28218;53.342;-6.216;2023-08-20T07:46:18;101437.19;;;19.75;100.00
42591;BME280;28218;53.342;-6.216;2023-08-20T07:48:48;101435.75;;;19.79;100.00
42591;BME280;28218;53.342;-6.216;2023-08-20T07:51:16;101442.09;;;19.84;100.00
42591;BME280;28218;53.342;-6.216;2023-08-20T07:53:44;101448.03;;;19.93;100.00
42591;BME280;28218;53.342;-6.216;2023-08-20T07:56:12;101460.78;;;19.98;100.00
42591;BME280;28218;53.342;-6.216;2023-08-20T07:58:41;101458.50;;;20.01;100.00
42591;BME280;28218;53.342;-6.216;2023-08-20T08:01:10;101467.75;;;20.05;100.00
42591;BME280;28218;53.342;-6.216;2023-08-20T08:03:40;101477.38;;;20.13;100.00
42591;BME280;28218;53.342;-6.216;2023-08-20T08:06:10;101483.28;;;20.22;100.00
42591;BME280;28218;53.342;-6.216;2023-08-20T08:08:42;101494.41;;;20.25;100.00
42591;BME280;28218;53.342;-6.216;2023-08-20T08:11:11;101496.03;;;20.33;100.00
42591;BME280;28218;53.342;-6.216;2023-08-20T08:13:39;101512.28;;;20.31;100.00
42591;BME280;28218;53.342;-6.216;2023-08-20T08:16:07;101510.59;;;20.37;100.00
42591;BME280;28218;53.342;-6.216;2023-08-20T08:18:36;101519.84;;;20.41;100.00
42591;BME280;28218;53.342;-6.216;2023-08-20T08:21:04;101521.66;;;20.54;100.00
42591;BME280;28218;53.342;-6.216;2023-08-20T08:23:33;101528.00;;;20.59;100.00
42591;BME280;28218;53.342;-6.216;2023-08-20T08:26:02;101538.94;;;20.58;100.00
42591;BME280;28218;53.342;-6.216;2023-08-20T08:28:30;101552.56;;;20.56;100.00
42591;BME280;28218;53.342;-6.216;2023-08-20T08:30:58;101558.91;;;20.62;100.00
42591;BME280;28218;53.342;-6.216;2023-08-20T08:33:27;101570.38;;;20.69;100.00
42591;BME280;28218;53.342;-6.216;2023-08-20T08:35:55;101571.22;;;20.70;100.00
42591;BME280;28218;53.342;-6.216;2023-08-20T08:38:23;101569.50;;;20.82;100.00
42591;BME280;28218;53.342;-6.216;2023-08-20T08:40:55;101580.63;;;20.85;100.00
42591;BME280;28218;53.342;-6.216;2023-08-20T08:43:24;101580.78;;;20.90;100.00
42591;BME280;28218;53.342;-6.216;2023-08-20T08:45:56;101582.16;;;21.00;100.00
42591;BME280;28218;53.342;-6.216;2023-08-20T08:48:25;101588.28;;;21.07;100.00
42591;BME280;28218;53.342;-6.216;2023-08-20T08:50:54;101592.63;;;21.08;100.00
42591;BME280;28218;53.342;-6.216;2023-08-20T08:53:24;101602.09;;;21.10;100.00
42591;BME280;28218;53.342;-6.216;2023-08-20T08:55:54;101605.19;;;21.07;100.00
42591;BME280;28218;53.342;-6.216;2023-08-20T08:58:23;101616.13;;;21.06;100.00
42591;BME280;28218;53.342;-6.216;2023-08-20T09:00:51;101608.75;;;21.01;100.00
42591;BME280;28218;53.342;-6.216;2023-08-20T09:03:20;101620.97;;;20.90;100.00
42591;BME280;28218;53.342;-6.216;2023-08-20T09:05:49;101611.50;;;20.88;100.00
42591;BME280;28218;53.342;-6.216;2023-08-20T09:08:20;101604.66;;;20.92;100.00
42591;BME280;28218;53.342;-6.216;2023-08-20T09:10:50;101605.63;;;21.04;100.00
42591;BME280;28218;53.342;-6.216;2023-08-20T09:13:24;101620.78;;;21.17;100.00
42591;BME280;28218;53.342;-6.216;2023-08-20T09:15:53;101618.66;;;21.26;100.00
42591;BME280;28218;53.342;-6.216;2023-08-20T09:18:22;101624.22;;;21.31;100.00
42591;BME280;28218;53.342;-6.216;2023-08-20T09:20:50;101622.56;;;21.36;100.00
42591;BME280;28218;53.342;-6.216;2023-08-20T09:23:18;101620.63;;;21.43;100.00
42591;BME280;28218;53.342;-6.216;2023-08-20T09:25:46;101630.13;;;21.46;100.00
42591;BME280;28218;53.342;-6.216;2023-08-20T09:28:15;101634.59;;;21.52;100.00
42591;BME280;28218;53.342;-6.216;2023-08-20T09:30:56;101633.72;;;21.58;100.00
42591;BME280;28218;53.342;-6.216;2023-08-20T09:33:24;101645.16;;;21.72;100.00
42591;BME280;28218;53.342;-6.216;2023-08-20T09:35:53;101654.56;;;21.81;100.00
42591;BME280;28218;53.342;-6.216;2023-08-20T09:38:24;101641.78;;;21.83;100.00
42591;BME280;28218;53.342;-6.216;2023-08-20T09:40:53;101646.59;;;21.75;100.00
42591;BME280;28218;53.342;-6.216;2023-08-20T09:43:24;101645.63;;;21.87;100.00
42591;BME280;28218;53.342;-6.216;2023-08-20T09:46:00;101660.47;;;21.90;100.00
42591;BME280;28218;53.342;-6.216;2023-08-20T09:48:33;101654.66;;;21.75;100.00
42591;BME280;28218;53.342;-6.216;2023-08-20T09:51:04;101655.06;;;21.72;100.00
42591;BME280;28218;53.342;-6.216;2023-08-20T09:53:36;101651.31;;;21.79;100.00
42591;BME280;28218;53.342;-6.216;2023-08-20T09:56:10;101660.75;;;21.82;100.00
42591;BME280;28218;53.342;-6.216;2023-08-20T09:58:43;101659.00;;;21.94;100.00
42591;BME280;28218;53.342;-6.216;2023-08-20T10:01:14;101659.59;;;21.96;100.00
42591;BME280;28218;53.342;-6.216;2023-08-20T10:03:43;101662.22;;;22.03;100.00
42591;BME280;28218;53.342;-6.216;2023-08-20T10:06:11;101660.53;;;22.08;100.00
42591;BME280;28218;53.342;-6.216;2023-08-20T10:08:40;101660.13;;;22.11;100.00
42591;BME280;28218;53.342;-6.216;2023-08-20T10:11:09;101664.59;;;22.17;100.00
42591;BME280;28218;53.342;-6.216;2023-08-20T10:13:37;101669.50;;;22.20;100.00
42591;BME280;28218;53.342;-6.216;2023-08-20T10:16:05;101667.28;;;22.36;100.00
42591;BME280;28218;53.342;-6.216;2023-08-20T10:18:36;101681.91;;;22.40;100.00
42591;BME280;28218;53.342;-6.216;2023-08-20T10:21:05;101679.22;;;22.40;100.00
42591;BME280;28218;53.342;-6.216;2023-08-20T10:23:36;101675.88;;;22.44;100.00
42591;BME280;28218;53.342;-6.216;2023-08-20T10:26:08;101677.13;;;22.42;100.00
42591;BME280;28218;53.342;-6.216;2023-08-20T10:28:37;101684.00;;;22.38;100.00
42591;BME280;28218;53.342;-6.216;2023-08-20T10:31:07;101702.72;;;22.26;100.00
42591;BME280;28218;53.342;-6.216;2023-08-20T10:33:47;101700.06;;;22.19;100.00
42591;BME280;28218;53.342;-6.216;2023-08-20T10:36:17;101697.47;;;22.13;100.00
42591;BME280;28218;53.342;-6.216;2023-08-20T10:38:49;101698.59;;;22.24;100.00
42591;BME280;28218;53.342;-6.216;2023-08-20T10:41:24;101701.81;;;22.32;100.00
42591;BME280;28218;53.342;-6.216;2023-08-20T10:43:53;101703.56;;;22.45;100.00
42591;BME280;28218;53.342;-6.216;2023-08-20T10:46:26;101707.41;;;22.67;100.00
42591;BME280;28218;53.342;-6.216;2023-08-20T10:49:00;101709.94;;;22.81;100.00
42591;BME280;28218;53.342;-6.216;2023-08-20T10:51:31;101705.53;;;22.86;100.00
42591;BME280;28218;53.342;-6.216;2023-08-20T10:54:04;101713.31;;;22.94;100.00
42591;BME280;28218;53.342;-6.216;2023-08-20T10:56:41;101708.63;;;22.90;100.00
42591;BME280;28218;53.342;-6.216;2023-08-20T10:59:13;101724.50;;;23.10;100.00
42591;BME280;28218;53.342;-6.216;2023-08-20T11:01:43;101726.19;;;23.23;100.00
42591;BME280;28218;53.342;-6.216;2023-08-20T11:04:15;101730.47;;;23.12;100.00
42591;BME280;28218;53.342;-6.216;2023-08-20T11:06:44;101721.09;;;23.03;100.00
42591;BME280;28218;53.342;-6.216;2023-08-20T11:09:12;101719.72;;;23.12;100.00
42591;BME280;28218;53.342;-6.216;2023-08-20T11:11:42;101725.81;;;23.19;100.00
42591;BME280;28218;53.342;-6.216;2023-08-20T11:14:13;101721.47;;;23.06;100.00
42591;BME280;28218;53.342;-6.216;2023-08-20T11:16:42;101719.06;;;22.98;100.00
42591;BME280;28218;53.342;-6.216;2023-08-20T11:19:12;101715.84;;;23.08;100.00
42591;BME280;28218;53.342;-6.216;2023-08-20T11:21:42;101724.59;;;23.03;100.00
42591;BME280;28218;53.342;-6.216;2023-08-20T11:24:10;101711.66;;;23.12;100.00
42591;BME280;28218;53.342;-6.216;2023-08-20T11:26:41;101701.16;;;23.22;100.00
42591;BME280;28218;53.342;-6.216;2023-08-20T11:29:10;101709.81;;;23.24;100.00
42591;BME280;28218;53.342;-6.216;2023-08-20T11:31:39;101699.41;;;23.16;100.00
42591;BME280;28218;53.342;-6.216;2023-08-20T11:34:08;101702.84;;;23.05;100.00
42591;BME280;28218;53.342;-6.216;2023-08-20T11:36:38;101690.84;;;23.07;100.00
42591;BME280;28218;53.342;-6.216;2023-08-20T11:39:08;101692.84;;;23.12;100.00
42591;BME280;28218;53.342;-6.216;2023-08-20T11:41:37;101693.09;;;23.22;100.00
42591;BME280;28218;53.342;-6.216;2023-08-20T11:44:08;101701.22;;;23.34;100.00
42591;BME280;28218;53.342;-6.216;2023-08-20T11:46:42;101696.34;;;23.54;100.00
42591;BME280;28218;53.342;-6.216;2023-08-20T11:49:12;101708.88;;;23.49;100.00
42591;BME280;28218;53.342;-6.216;2023-08-20T11:51:42;101705.06;;;23.38;100.00
42591;BME280;28218;53.342;-6.216;2023-08-20T11:54:14;101707.00;;;23.49;100.00
42591;BME280;28218;53.342;-6.216;2023-08-20T11:56:44;101704.31;;;23.61;100.00
42591;BME280;28218;53.342;-6.216;2023-08-20T11:59:14;101710.25;;;23.51;100.00
42591;BME280;28218;53.342;-6.216;2023-08-20T12:01:42;101717.28;;;23.52;100.00
42591;BME280;28218;53.342;-6.216;2023-08-20T12:04:11;101710.50;;;23.61;100.00
42591;BME280;28218;53.342;-6.216;2023-08-20T12:06:39;101721.00;;;23.81;100.00
42591;BME280;28218;53.342;-6.216;2023-08-20T12:09:20;101708.84;;;24.02;100.00
42591;BME280;28218;53.342;-6.216;2023-08-20T12:11:49;101719.25;;;23.98;100.00
42591;BME280;28218;53.342;-6.216;2023-08-20T12:14:18;101716.56;;;23.98;100.00
42591;BME280;28218;53.342;-6.216;2023-08-20T12:16:47;101711.53;;;24.02;100.00
42591;BME280;28218;53.342;-6.216;2023-08-20T12:19:18;101704.97;;;23.98;100.00
42591;BME280;28218;53.342;-6.216;2023-08-20T12:21:46;101710.00;;;23.83;100.00
42591;BME280;28218;53.342;-6.216;2023-08-20T12:24:16;101717.47;;;23.69;100.00
42591;BME280;28218;53.342;-6.216;2023-08-20T12:26:47;101704.88;;;23.39;100.00
42591;BME280;28218;53.342;-6.216;2023-08-20T12:29:15;101711.09;;;23.21;100.00
42591;BME280;28218;53.342;-6.216;2023-08-20T12:31:44;101706.28;;;23.12;100.00
42591;BME280;28218;53.342;-6.216;2023-08-20T12:34:12;101708.31;;;23.28;100.00
42591;BME280;28218;53.342;-6.216;2023-08-20T12:36:40;101705.75;;;23.63;100.00
42591;BME280;28218;53.342;-6.216;2023-08-20T12:39:09;101708.25;;;23.77;100.00
42591;BME280;28218;53.342;-6.216;2023-08-20T12:41:37;101708.16;;;23.95;100.00